Time;durP1;ratioP1;P1;durP2;ratioP2;P2;SDS_P1;SDS_P2;PMS_P1;PMS_P2;Temp;Humidity;BMP_temperature;BMP_pressure;BME280_temperature;BME280_humidity;BME280_pressure;Samples;Min_cycle;Max_cycle;Signal;HPM_P1;HPM_P2
2021/08/03 00:00:52;;;;;;;6.07;2.83;;;16.10;69.00;;;15.60;55.10;94932.56;5033129;28;20242;-82
2021/08/03 00:03:28;;;;;;;5.70;4.18;;;16.10;69.40;;;15.57;54.67;94927.72;5032956;28;20223;-83
2021/08/03 00:05:57;;;;;;;3.40;2.63;;;16.00;69.40;;;15.55;54.85;94921.88;5033103;28;20203;-82
2021/08/03 00:08:28;;;;;;;3.85;2.78;;;16.00;69.10;;;15.58;54.88;94925.91;5016419;28;20307;-83
2021/08/03 00:10:56;;;;;;;3.45;2.60;;;15.90;69.30;;;15.57;54.98;94924.28;5032944;28;20693;-83
2021/08/03 00:13:26;;;;;;;3.03;2.38;;;15.90;69.10;;;15.59;55.11;94932.81;5032529;28;20215;-83
2021/08/03 00:16:01;;;;;;;2.63;2.33;;;15.90;69.50;;;15.61;55.30;94925.44;5033079;28;20330;-83
2021/08/03 00:18:30;;;;;;;2.47;2.28;;;15.90;69.90;;;15.65;55.60;94926.63;5032726;28;20188;-83
2021/08/03 00:20:58;;;;;;;2.63;2.17;;;15.90;69.90;;;15.70;56.81;94924.13;5016222;28;20327;-82
2021/08/03 00:23:26;;;;;;;3.20;2.63;;;15.90;70.20;;;15.75;57.48;94923.44;5016348;28;20192;-83
2021/08/03 00:25:54;;;;;;;3.25;2.90;;;16.00;70.90;;;15.77;57.44;94932.78;5016256;28;20215;-82
2021/08/03 00:28:22;;;;;;;2.55;2.35;;;16.00;71.00;;;15.82;57.76;94929.47;5032412;28;20207;-83
2021/08/03 00:30:50;;;;;;;2.97;2.67;;;16.00;71.30;;;15.83;57.94;94925.78;5032660;28;20224;-83
2021/08/03 00:33:18;;;;;;;3.05;2.40;;;16.00;71.30;;;15.86;58.26;94925.34;5032750;28;20242;-83
2021/08/03 00:35:50;;;;;;;2.72;2.53;;;16.00;71.30;;;15.86;58.32;94927.19;5032657;28;20220;-83
2021/08/03 00:38:18;;;;;;;3.45;2.50;;;16.10;71.90;;;15.88;58.33;94917.19;5032439;28;20184;-83
2021/08/03 00:41:02;;;;;;;3.08;2.67;;;16.20;71.50;;;15.86;58.15;94919.28;5032336;28;20580;-83
2021/08/03 00:43:30;;;;;;;2.80;2.60;;;16.10;71.70;;;15.86;58.37;94914.78;5013500;28;20220;-84
2021/08/03 00:45:57;;;;;;;2.60;2.40;;;16.20;71.60;;;15.87;58.35;94912.91;4980345;28;20240;-83
2021/08/03 00:48:25;;;;;;;3.45;2.53;;;16.10;71.50;;;15.87;58.26;94913.75;5001852;28;20231;-83
2021/08/03 00:50:52;;;;;;;2.60;2.40;;;16.20;71.50;;;15.91;58.35;94914.91;5015380;28;20232;-83
2021/08/03 00:53:20;;;;;;;2.70;2.50;;;16.20;71.60;;;15.95;57.69;94920.53;5016004;28;20202;-83
2021/08/03 00:55:49;;;;;;;4.60;2.33;;;16.10;71.50;;;16.00;57.70;94918.84;5015866;28;20218;-83
2021/08/03 00:58:17;;;;;;;2.70;2.28;;;16.20;71.80;;;16.07;58.09;94912.66;5016145;28;20207;-83
2021/08/03 01:00:45;;;;;;;2.80;2.45;;;16.20;71.80;;;16.12;57.92;94921.50;5015567;28;20224;-84
2021/08/03 01:03:13;;;;;;;2.85;2.20;;;16.30;71.90;;;16.17;57.79;94911.06;5032184;28;20215;-83
2021/08/03 01:06:25;;;;;;;3.00;2.70;;;16.30;71.80;;;16.17;57.91;94911.06;5009030;28;20262;-83
2021/08/03 01:09:05;;;;;;;2.55;2.35;;;16.30;73.10;;;16.17;57.85;94911.06;4991473;28;20240;-84
2021/08/03 01:11:44;;;;;;;2.78;2.47;;;16.40;72.00;;;16.16;57.69;94913.94;4993269;28;20220;-84
2021/08/03 01:14:27;;;;;;;2.50;2.30;;;16.40;71.90;;;16.08;57.72;94903.69;4996425;28;20272;-83
2021/08/03 01:17:22;;;;;;;2.58;2.20;;;16.40;72.10;;;16.03;57.08;94911.47;4980263;28;20219;-84
2021/08/03 01:20:12;;;;;;;3.55;2.50;;;16.30;71.70;;;15.99;57.72;94914.59;4996584;28;20295;-84
2021/08/03 01:23:06;;;;;;;2.15;1.95;;;16.30;71.80;;;15.91;57.87;94903.53;4996491;28;20212;-83
2021/08/03 01:26:17;;;;;;;3.15;2.30;;;16.30;71.70;;;15.89;58.12;94909.03;5013923;28;20207;-82
2021/08/03 01:28:50;;;;;;;4.60;2.30;;;16.20;71.80;;;15.83;58.03;94913.38;5012062;28;20228;-83
2021/08/03 01:31:23;;;;;;;2.40;2.20;;;16.20;71.50;;;15.80;58.90;94913.00;4980313;28;20275;-84
2021/08/03 01:34:09;;;;;;;3.00;2.08;;;16.20;71.80;;;15.78;58.33;94917.69;4996128;28;20208;-83
2021/08/03 01:36:41;;;;;;;2.30;2.10;;;16.20;71.90;;;15.74;57.74;94912.03;4995639;28;20228;-83
2021/08/03 01:39:10;;;;;;;2.25;2.10;;;16.10;71.80;;;15.69;57.98;94910.06;5007085;28;20669;-83
2021/08/03 01:41:39;;;;;;;3.30;2.08;;;16.00;71.50;;;15.64;58.21;94907.28;5032140;28;20215;-83
2021/08/03 01:44:11;;;;;;;2.20;2.00;;;16.00;71.50;;;15.64;57.96;94911.78;5032017;28;20204;-83
2021/08/03 01:46:40;;;;;;;2.20;2.00;;;16.00;72.10;;;15.61;57.97;94913.03;5031708;28;20188;-84
2021/08/03 01:49:10;;;;;;;2.20;1.90;;;15.90;71.60;;;15.60;57.83;94918.53;5031641;28;20232;-83
2021/08/03 01:51:42;;;;;;;1.92;1.83;;;15.90;71.50;;;15.60;57.76;94915.88;5031412;28;20198;-83
2021/08/03 01:54:11;;;;;;;2.33;1.50;;;15.90;71.80;;;15.57;57.65;94922.44;5031854;28;20629;-84
2021/08/03 01:56:41;;;;;;;1.77;1.67;;;15.80;71.40;;;15.59;58.06;94928.31;5031713;28;20650;-84
2021/08/03 01:59:10;;;;;;;2.00;1.80;;;15.80;71.60;;;15.60;58.45;94927.28;5015725;28;20192;-83
2021/08/03 02:01:39;;;;;;;1.90;1.80;;;15.90;72.10;;;15.62;57.99;94932.34;5031198;28;20698;-83
2021/08/03 02:04:09;;;;;;;2.30;1.77;;;15.90;72.10;;;15.61;58.47;94936.84;5031644;28;20187;-84
2021/08/03 02:06:37;;;;;;;2.90;2.33;;;15.80;71.90;;;15.62;58.18;94933.16;5031391;28;20219;-84
2021/08/03 02:09:10;;;;;;;4.55;2.05;;;15.90;72.20;;;15.60;57.91;94939.69;5016143;28;20242;-84
2021/08/03 02:11:38;;;;;;;3.15;2.33;;;15.80;72.10;;;15.62;57.87;94938.44;5031448;28;20231;-83
2021/08/03 02:14:08;;;;;;;3.10;2.58;;;15.80;72.10;;;15.62;58.62;94938.44;5018542;28;20278;-84
2021/08/03 02:16:54;;;;;;;2.78;2.58;;;15.80;72.30;;;15.62;58.09;94935.00;5034988;28;20210;-84
2021/08/03 02:19:29;;;;;;;3.00;2.75;;;15.80;72.20;;;15.62;58.51;94940.28;5036269;28;20204;-82
2021/08/03 02:22:05;;;;;;;3.28;2.35;;;15.80;72.30;;;15.62;58.39;94930.50;5019840;28;20544;-84
2021/08/03 02:24:35;;;;;;;3.25;2.60;;;15.90;73.30;;;15.60;58.42;94929.94;5035208;28;20314;-84
2021/08/03 02:27:06;;;;;;;3.10;2.80;;;15.80;72.30;;;15.65;58.65;94929.28;5035311;28;20235;-83
2021/08/03 02:29:37;;;;;;;2.78;2.58;;;15.90;72.60;;;15.61;58.59;94926.25;5034973;28;20227;-84
2021/08/03 02:32:17;;;;;;;2.63;2.42;;;15.80;72.60;;;15.64;58.79;94935.59;5035297;28;20215;-84
2021/08/03 02:34:55;;;;;;;3.13;2.70;;;15.90;73.00;;;15.64;58.77;94935.59;5035367;28;20693;-84
2021/08/03 02:37:31;;;;;;;2.63;2.38;;;15.90;73.00;;;15.63;58.63;94933.97;5018894;28;20234;-83
2021/08/03 02:40:03;;;;;;;2.55;2.25;;;15.90;72.80;;;15.62;58.50;94932.34;5018912;28;20220;-84
2021/08/03 02:42:42;;;;;;;3.22;2.50;;;15.80;72.20;;;15.61;58.35;94930.72;5020221;28;20195;-84
2021/08/03 02:45:17;;;;;;;3.67;2.50;;;15.80;72.30;;;15.60;58.45;94932.56;5019505;28;20255;-84
2021/08/03 02:47:51;;;;;;;2.60;2.40;;;15.90;72.20;;;15.53;58.26;94929.22;5035313;28;20211;-84
2021/08/03 02:50:23;;;;;;;2.90;2.60;;;15.80;72.10;;;15.48;58.35;94932.50;5035554;28;20211;-84
2021/08/03 02:52:54;;;;;;;2.75;2.50;;;15.80;72.20;;;15.41;58.14;94918.56;5034675;28;20228;-84
2021/08/03 02:55:34;;;;;;;2.60;2.40;;;15.80;72.20;;;15.32;58.17;94925.19;5035273;28;20236;-84
2021/08/03 02:58:10;;;;;;;2.67;2.47;;;15.70;72.30;;;15.22;58.75;94920.41;5034730;28;20258;-83
2021/08/03 03:00:39;;;;;;;3.80;2.72;;;15.60;72.40;;;15.12;58.88;94928.03;5018240;28;20212;-84
2021/08/03 03:03:19;;;;;;;3.38;2.55;;;15.60;72.10;;;15.05;58.53;94925.50;5019469;28;20612;-84
2021/08/03 03:05:52;;;;;;;2.50;2.28;;;15.60;72.40;;;14.97;58.50;94923.13;5034949;28;20219;-84
2021/08/03 03:08:26;;;;;;;3.13;2.47;;;15.40;72.10;;;14.87;58.49;94927.06;5017981;28;20220;-84
2021/08/03 03:10:58;;;;;;;2.83;2.60;;;15.40;72.30;;;14.82;58.63;94928.75;5018408;28;20235;-84
2021/08/03 03:13:56;;;;;;;3.38;2.42;;;15.30;72.20;;;14.79;59.26;94932.63;5018157;28;20188;-84
2021/08/03 03:16:28;;;;;;;2.67;2.30;;;15.20;72.80;;;14.76;59.13;94929.59;5028410;28;20630;-84
2021/08/03 03:18:57;;;;;;;3.58;2.30;;;15.20;72.40;;;14.76;58.36;94930.44;5018109;28;20580;-83
2021/08/03 03:21:27;;;;;;;2.47;2.28;;;15.10;72.30;;;14.75;58.87;94933.28;5050463;28;20216;-83
2021/08/03 03:23:57;;;;;;;2.53;2.33;;;15.20;72.50;;;14.75;58.83;94939.38;5017231;28;20288;-84
2021/08/03 03:26:29;;;;;;;2.42;2.22;;;15.10;72.60;;;14.75;58.69;94944.66;5017242;28;20230;-83
2021/08/03 03:29:00;;;;;;;2.35;2.15;;;15.10;72.50;;;14.72;58.79;94945.91;5017850;28;20224;-83
2021/08/03 03:31:31;;;;;;;2.40;2.20;;;15.10;72.60;;;14.73;58.87;94952.78;5034097;28;20291;-84
2021/08/03 03:34:05;;;;;;;2.40;2.20;;;15.00;72.50;;;14.76;59.40;94942.81;5034206;28;20396;-84
2021/08/03 03:36:34;;;;;;;2.55;2.35;;;15.00;72.70;;;14.79;59.14;94945.03;5017799;28;20216;-83
2021/08/03 03:39:05;;;;;;;2.30;2.10;;;15.00;72.80;;;14.82;59.29;94955.16;5034015;28;20211;-84
2021/08/03 03:41:37;;;;;;;2.45;2.25;;;15.10;72.80;;;14.82;59.30;94950.69;5034585;28;20652;-84
2021/08/03 03:44:06;;;;;;;2.60;2.20;;;15.10;72.80;;;14.85;59.16;94954.72;5017695;28;20279;-84
2021/08/03 03:46:50;;;;;;;2.42;2.22;;;15.10;72.80;;;14.87;59.16;94950.03;5034070;28;20216;-85
2021/08/03 03:49:23;;;;;;;2.50;2.28;;;15.10;73.00;;;14.91;59.25;94959.13;5017737;28;20739;-84
2021/08/03 03:51:51;;;;;;;2.33;2.13;;;15.10;72.90;;;14.93;59.25;94954.44;5034932;28;20176;-83
2021/08/03 03:54:28;;;;;;;3.75;2.28;;;15.10;72.80;;;14.98;59.03;94956.44;5033803;28;20239;-83
2021/08/03 03:57:02;;;;;;;2.50;2.30;;;15.20;73.20;;;15.00;59.05;94951.72;5017183;28;20662;-83
2021/08/03 03:59:33;;;;;;;2.40;2.20;;;15.20;73.10;;;15.07;59.39;94957.75;5017626;28;20288;-82
2021/08/03 04:02:05;;;;;;;2.25;1.98;;;15.20;73.00;;;15.12;58.81;94947.34;5033198;28;20246;-83
2021/08/03 04:04:35;;;;;;;2.30;2.10;;;15.20;73.10;;;15.20;58.96;94951.53;5032976;28;20200;-82
2021/08/03 04:07:03;;;;;;;2.60;2.00;;;15.30;73.10;;;15.22;59.04;94957.38;5032671;28;20184;-83
2021/08/03 04:09:30;;;;;;;2.83;2.33;;;15.40;73.20;;;15.30;59.03;94958.94;5032841;28;20227;-82
2021/08/03 04:12:04;;;;;;;2.38;2.17;;;15.40;73.10;;;15.35;58.89;94961.72;5032973;28;20297;-83
2021/08/03 04:14:34;;;;;;;5.30;2.38;;;15.40;73.10;;;15.41;58.67;94962.69;5016721;28;20247;-83
2021/08/03 04:17:09;;;;;;;2.30;2.10;;;15.50;73.20;;;15.49;58.72;94962.38;5033053;28;20192;-82
2021/08/03 04:19:40;;;;;;;2.55;2.35;;;15.50;73.20;;;15.55;58.99;94956.25;5033181;28;20220;-82
2021/08/03 04:22:07;;;;;;;2.55;2.35;;;15.60;73.20;;;15.60;58.73;94952.91;5016115;28;20204;-83
2021/08/03 04:24:34;;;;;;;2.45;2.15;;;15.60;73.20;;;15.69;58.70;94954.22;5032480;28;20212;-82
2021/08/03 04:27:03;;;;;;;2.80;2.47;;;15.70;73.20;;;15.79;58.80;94962.41;5016117;28;20231;-83
2021/08/03 04:29:30;;;;;;;3.22;2.50;;;15.70;73.40;;;15.87;59.18;94956.06;5015968;28;20228;-83
2021/08/03 04:31:57;;;;;;;2.75;2.20;;;15.80;73.40;;;15.92;59.12;94942.97;5032536;28;20192;-83
2021/08/03 04:34:24;;;;;;;2.50;2.30;;;15.90;73.50;;;16.05;58.53;94955.22;5033936;28;20294;-83
2021/08/03 04:36:52;;;;;;;2.50;2.30;;;15.90;73.40;;;16.13;58.90;94952.22;5015879;28;20204;-82
2021/08/03 04:39:19;;;;;;;3.42;2.40;;;16.00;73.40;;;16.21;58.90;94951.13;5016276;28;20291;-84
2021/08/03 04:41:46;;;;;;;2.63;2.42;;;16.10;73.40;;;16.24;58.41;94949.88;5016270;28;20195;-83
2021/08/03 04:44:13;;;;;;;2.42;2.05;;;16.30;73.50;;;16.28;58.61;94951.00;5032767;28;20227;-83
2021/08/03 04:46:41;;;;;;;2.42;2.22;;;16.20;73.30;;;16.30;58.47;94943.66;5032622;28;20223;-83
2021/08/03 04:49:08;;;;;;;2.10;2.00;;;16.30;73.30;;;16.30;58.20;94938.38;5015822;28;20224;-83
2021/08/03 04:51:36;;;;;;;2.53;2.30;;;16.40;73.10;;;16.33;58.37;94948.50;5015806;28;20274;-83
2021/08/03 04:54:04;;;;;;;2.95;2.00;;;16.30;73.00;;;16.34;58.57;94942.16;5032473;28;20235;-83
2021/08/03 04:56:31;;;;;;;2.92;2.55;;;16.40;73.10;;;16.40;58.46;94937.81;5032028;28;20216;-83
2021/08/03 04:58:59;;;;;;;3.40;2.40;;;16.40;73.20;;;16.42;58.51;94933.09;5015819;28;20207;-83
2021/08/03 05:01:27;;;;;;;2.45;2.25;;;16.40;73.10;;;16.47;58.43;94939.31;5015687;28;20282;-83
2021/08/03 05:03:54;;;;;;;2.65;2.45;;;16.50;73.20;;;16.48;58.70;94935.63;5033409;28;20202;-83
2021/08/03 05:06:21;;;;;;;2.50;2.30;;;16.50;73.10;;;16.59;58.67;94941.19;5032034;28;20274;-83
2021/08/03 05:08:49;;;;;;;2.72;2.30;;;16.60;73.30;;;16.67;58.66;94947.97;5031862;28;20212;-83
2021/08/03 05:11:16;;;;;;;4.20;2.40;;;16.60;73.30;;;16.72;58.47;94942.78;5015432;28;20220;-83
2021/08/03 05:13:43;;;;;;;3.13;2.00;;;16.70;73.20;;;16.79;58.13;94935.53;5015638;28;20199;-82
2021/08/03 05:16:10;;;;;;;2.72;2.30;;;16.80;73.20;;;16.85;58.04;94934.63;5015697;28;20302;-83
2021/08/03 05:18:38;;;;;;;3.50;2.38;;;16.80;73.20;;;16.86;58.36;94938.88;5031926;28;20265;-83
2021/08/03 05:21:05;;;;;;;2.20;2.00;;;16.80;73.00;;;16.92;58.16;94938.00;5032682;28;20212;-84
2021/08/03 05:23:32;;;;;;;2.55;2.35;;;16.90;73.00;;;16.97;58.06;94932.00;5031377;28;20214;-83
2021/08/03 05:25:59;;;;;;;2.67;2.40;;;16.90;73.00;;;17.04;57.85;94945.94;5031603;28;20215;-83
2021/08/03 05:28:26;;;;;;;2.40;2.20;;;17.00;73.00;;;17.09;58.13;94942.59;5031531;28;20192;-83
2021/08/03 05:30:53;;;;;;;2.55;2.25;;;17.10;72.90;;;17.17;57.65;94944.09;5031448;28;20255;-83
2021/08/03 05:33:20;;;;;;;2.80;2.30;;;17.10;73.70;;;17.27;57.69;94946.94;5031099;28;20207;-83
2021/08/03 05:35:48;;;;;;;2.47;2.28;;;17.10;72.80;;;17.34;57.72;94946.84;5015145;28;20775;-83
2021/08/03 05:38:15;;;;;;;2.38;2.17;;;17.20;72.70;;;17.41;57.27;94940.34;5031623;28;20394;-82
2021/08/03 05:40:42;;;;;;;2.63;2.42;;;17.30;72.80;;;17.46;57.45;94939.66;5015058;28;20295;-83
2021/08/03 05:43:09;;;;;;;3.05;2.45;;;17.30;72.50;;;17.57;57.02;94948.63;5014938;28;20199;-83
2021/08/03 05:45:37;;;;;;;2.58;2.38;;;17.50;72.50;;;17.66;57.27;94951.72;5015193;28;20235;-82
2021/08/03 05:48:04;;;;;;;2.50;2.30;;;17.50;72.50;;;17.73;56.57;94945.22;5032575;28;20204;-82
2021/08/03 05:50:32;;;;;;;2.53;2.33;;;17.60;72.60;;;17.86;56.66;94953.97;5035594;28;20775;-82
2021/08/03 05:52:59;;;;;;;2.50;2.30;;;17.60;72.50;;;17.93;56.59;94951.94;5035497;28;20704;-83
2021/08/03 05:55:26;;;;;;;2.30;2.10;;;17.70;72.30;;;18.02;56.51;94945.25;5036798;28;20212;-83
2021/08/03 05:57:53;;;;;;;2.60;2.17;;;17.80;72.40;;;18.12;56.44;94949.16;5035561;28;20219;-83
2021/08/03 06:00:20;;;;;;;2.53;2.10;;;17.90;72.40;;;18.18;56.40;94948.22;5019193;28;20226;-83
2021/08/03 06:02:49;;;;;;;3.70;2.63;;;18.00;73.10;;;18.27;56.48;94953.94;5036412;28;20274;-83
2021/08/03 06:05:17;;;;;;;2.15;2.03;;;18.00;72.10;;;18.35;56.10;94954.34;5019186;28;20215;-83
2021/08/03 06:07:51;;;;;;;2.75;2.13;;;18.10;72.00;;;18.39;55.94;94946.69;5019067;28;20216;-84
2021/08/03 06:10:19;;;;;;;2.33;2.13;;;18.20;71.80;;;18.48;56.32;94941.78;5019057;28;20705;-83
2021/08/03 06:12:49;;;;;;;2.97;2.13;;;18.30;72.00;;;18.58;56.04;94944.63;5034960;28;20654;-82
2021/08/03 06:15:17;;;;;;;2.35;2.15;;;18.30;71.80;;;18.66;55.48;94938.09;5018942;28;20247;-82
2021/08/03 06:17:51;;;;;;;2.47;2.25;;;18.40;71.80;;;18.77;55.29;94939.84;5035315;28;20200;-83
2021/08/03 06:20:18;;;;;;;3.50;1.98;;;18.50;71.60;;;18.86;55.23;94932.31;5031328;28;20220;-83
2021/08/03 06:22:45;;;;;;;2.40;2.20;;;18.60;71.60;;;18.92;55.52;94923.38;5009491;28;20612;-83
2021/08/03 06:25:15;;;;;;;3.72;2.47;;;18.70;71.70;;;19.06;55.43;94934.47;5020032;28;20224;-82
2021/08/03 06:27:43;;;;;;;2.00;1.80;;;18.80;71.90;;;19.16;55.93;94931.13;5023938;28;20431;-84
2021/08/03 06:30:12;;;;;;;2.30;2.10;;;18.80;71.80;;;19.22;55.39;94927.50;5002133;28;20256;-84
2021/08/03 06:32:44;;;;;;;3.22;2.08;;;18.90;71.60;;;19.33;55.21;94928.44;5015321;28;20205;-83
2021/08/03 06:35:15;;;;;;;2.58;1.88;;;19.00;72.70;;;19.41;55.12;94925.34;4999267;28;20224;-83
2021/08/03 06:37:42;;;;;;;2.20;2.00;;;19.10;71.50;;;19.50;55.08;94923.84;4998418;28;20552;-83
2021/08/03 06:40:10;;;;;;;2.47;2.28;;;19.20;71.30;;;19.57;55.13;94930.88;5014881;28;20204;-83
2021/08/03 06:43:02;;;;;;;3.42;1.90;;;19.20;71.10;;;19.65;54.94;94936.56;5014784;28;20283;-83
2021/08/03 06:45:32;;;;;;;2.25;2.05;;;19.40;71.00;;;19.72;54.50;94931.03;4998707;28;20232;-84
2021/08/03 06:48:11;;;;;;;3.00;2.50;;;19.40;70.60;;;19.81;54.01;94931.38;4999014;28;20195;-83
2021/08/03 06:50:50;;;;;;;2.72;1.90;;;19.50;70.50;;;19.88;54.16;94933.91;4998869;28;20244;-84
2021/08/03 06:53:18;;;;;;;2.53;1.92;;;19.50;70.20;;;19.95;53.95;94929.97;5016783;28;20199;-82
2021/08/03 06:55:48;;;;;;;2.08;1.88;;;19.60;70.70;;;20.04;54.16;94933.00;5023982;28;20310;-83
2021/08/03 06:59:03;;;;;;;2.15;1.83;;;19.60;70.00;;;20.13;54.19;94931.50;5006238;28;20278;-84
2021/08/03 07:02:08;;;;;;;1.90;1.77;;;19.70;70.20;;;20.19;53.79;94924.38;5017818;28;20771;-83
2021/08/03 07:04:47;;;;;;;1.80;1.70;;;19.80;69.60;;;20.29;53.22;94929.00;5017861;28;20207;-83
2021/08/03 07:07:14;;;;;;;1.95;1.75;;;19.90;69.70;;;20.41;53.60;94931.47;5034119;28;20263;-83
2021/08/03 07:09:42;;;;;;;1.90;1.80;;;20.00;71.20;;;20.52;53.65;94932.34;5017626;28;20322;-83
2021/08/03 07:12:12;;;;;;;3.30;2.10;;;20.00;70.10;;;20.60;53.46;94935.38;5032022;28;20266;-83
2021/08/03 07:14:40;;;;;;;2.90;2.10;;;20.10;69.80;;;20.70;53.06;94934.66;4996087;28;20291;-83
2021/08/03 07:17:15;;;;;;;1.88;1.70;;;20.20;69.90;;;20.75;52.82;94928.56;4998007;28;20570;-83
2021/08/03 07:19:44;;;;;;;1.75;1.65;;;20.30;69.50;;;20.87;52.81;94931.06;4997918;28;20686;-82
2021/08/03 07:22:15;;;;;;;1.70;1.60;;;20.30;69.70;;;20.97;53.16;94922.31;4997625;28;20559;-83
2021/08/03 07:24:45;;;;;;;2.75;1.77;;;20.40;69.50;;;21.02;52.59;94922.34;4997689;28;20762;-83
2021/08/03 07:27:13;;;;;;;1.80;1.70;;;20.50;69.30;;;21.13;51.87;94931.22;4997985;28;20189;-83
2021/08/03 07:29:40;;;;;;;2.20;1.70;;;20.60;68.80;;;21.17;51.28;94935.78;5013719;28;20221;-83
2021/08/03 07:32:09;;;;;;;2.50;2.00;;;20.70;68.70;;;21.21;50.91;94936.06;4997524;28;20201;-82
2021/08/03 07:34:37;;;;;;;2.03;1.90;;;20.80;68.50;;;21.25;51.18;94932.63;5013609;28;20267;-83
2021/08/03 07:37:06;;;;;;;3.28;1.90;;;20.80;68.50;;;21.35;51.41;94934.56;5013312;28;20283;-82
2021/08/03 07:39:37;;;;;;;2.03;1.70;;;20.90;68.40;;;21.42;51.11;94936.97;4997446;28;20196;-82
2021/08/03 07:42:08;;;;;;;4.55;2.20;;;20.90;68.00;;;21.48;51.47;94938.59;4997026;28;20236;-83
2021/08/03 07:44:37;;;;;;;2.58;1.95;;;21.00;68.40;;;21.55;51.30;94931.16;4997332;28;20212;-83
2021/08/03 07:47:04;;;;;;;2.00;1.73;;;21.10;68.20;;;21.63;51.29;94934.44;4997281;28;20610;-83
2021/08/03 07:49:32;;;;;;;2.10;1.98;;;21.20;68.50;;;21.71;51.32;94936.59;4997298;28;20225;-83
2021/08/03 07:51:59;;;;;;;1.95;1.85;;;21.30;68.50;;;21.80;51.06;94934.22;4997091;28;20537;-83
2021/08/03 07:54:26;;;;;;;1.90;1.80;;;21.30;68.40;;;21.89;50.73;94930.00;4997178;28;20207;-83
2021/08/03 07:56:53;;;;;;;2.60;2.10;;;21.40;68.30;;;21.98;50.67;94928.41;5013144;28;20205;-82
2021/08/03 07:59:20;;;;;;;3.42;2.00;;;21.40;68.30;;;22.09;51.02;94929.22;4997108;28;20289;-82
2021/08/03 08:01:48;;;;;;;2.03;1.92;;;21.50;68.30;;;22.16;50.24;94937.78;4996924;28;20208;-82
2021/08/03 08:04:15;;;;;;;2.28;1.90;;;21.60;67.80;;;22.24;50.03;94920.44;4996772;28;20777;-82
2021/08/03 08:06:42;;;;;;;2.20;1.95;;;21.70;67.40;;;22.31;49.62;94925.53;4996939;28;20263;-83
2021/08/03 08:09:17;;;;;;;2.15;1.80;;;21.80;67.20;;;22.33;48.13;94920.72;4998016;28;20228;-81
2021/08/03 08:11:44;;;;;;;2.00;1.80;;;21.80;66.10;;;22.38;48.93;94926.88;4996112;28;20210;-83
2021/08/03 08:14:12;;;;;;;1.90;1.80;;;21.80;66.50;;;22.44;49.24;94911.66;4996717;28;20262;-82
2021/08/03 08:16:39;;;;;;;2.30;2.10;;;21.90;66.60;;;22.54;48.96;94911.69;4996640;28;20197;-82
2021/08/03 08:19:06;;;;;;;2.05;1.85;;;22.00;66.50;;;22.64;48.88;94913.56;4980257;28;20198;-83
2021/08/03 08:21:33;;;;;;;2.25;2.05;;;22.10;66.80;;;22.75;49.04;94908.97;4996640;28;20721;-83
2021/08/03 08:24:02;;;;;;;1.70;1.60;;;22.10;67.00;;;22.88;49.30;94904.97;5012640;28;20219;-82
2021/08/03 08:26:30;;;;;;;2.50;1.80;;;22.30;67.00;;;23.01;48.87;94900.94;5001403;28;20217;-83
2021/08/03 08:28:58;;;;;;;1.75;1.65;;;22.30;66.70;;;23.11;48.91;94905.47;5012551;28;20202;-83
2021/08/03 08:31:26;;;;;;;1.80;1.70;;;22.50;66.40;;;23.18;48.72;94896.09;4996234;28;20223;-83
2021/08/03 08:33:53;;;;;;;1.70;1.60;;;22.50;66.40;;;23.29;48.20;94902.22;4996487;28;20210;-83
2021/08/03 08:36:20;;;;;;;1.88;1.67;;;22.60;65.70;;;23.36;48.35;94904.59;5012435;28;20776;-83
2021/08/03 08:38:47;;;;;;;2.10;1.90;;;22.70;65.70;;;23.41;48.00;94899.25;5012369;28;20200;-83
2021/08/03 08:41:15;;;;;;;1.92;1.77;;;22.80;65.70;;;23.47;48.24;94895.47;4996100;28;20625;-83
2021/08/03 08:43:42;;;;;;;2.20;2.00;;;22.90;65.80;;;23.56;47.81;94900.25;4995965;28;20566;-83
2021/08/03 08:46:14;;;;;;;3.45;1.73;;;22.90;65.80;;;23.65;47.30;94894.03;5012273;28;20219;-83
2021/08/03 08:48:43;;;;;;;1.73;1.63;;;23.00;65.90;;;23.71;47.26;94900.19;4995892;28;20208;-84
2021/08/03 08:51:10;;;;;;;2.05;1.60;;;23.10;65.40;;;23.69;47.05;94896.97;5012064;28;20323;-83
2021/08/03 08:53:38;;;;;;;2.10;1.60;;;23.10;65.10;;;23.69;47.33;94899.66;5014609;28;20287;-83
2021/08/03 08:56:05;;;;;;;1.98;1.88;;;23.20;65.90;;;23.75;46.88;94895.06;5012067;28;20232;-83
2021/08/03 08:58:34;;;;;;;1.95;1.80;;;23.20;65.00;;;23.81;46.75;94892.13;5012073;28;20311;-83
2021/08/03 09:01:03;;;;;;;2.45;1.77;;;23.30;65.00;;;23.87;46.50;94898.22;4995630;28;20248;-83
2021/08/03 09:03:31;;;;;;;1.98;1.70;;;23.30;64.50;;;23.89;46.46;94890.72;4995757;28;20196;-83
2021/08/03 09:06:01;;;;;;;2.38;1.90;;;23.40;64.70;;;23.94;45.53;94892.59;5002255;28;20229;-82
2021/08/03 09:08:43;;;;;;;2.08;1.88;;;23.40;64.00;;;24.01;45.78;94881.56;5011159;28;20220;-83
2021/08/03 09:11:29;;;;;;;2.00;1.70;;;23.50;64.00;;;24.08;45.87;94884.75;5011832;28;20595;-82
2021/08/03 09:14:32;;;;;;;1.85;1.70;;;23.50;64.10;;;24.20;45.99;94887.09;4985128;28;20220;-84
2021/08/03 09:16:59;;;;;;;2.05;1.85;;;23.60;64.60;;;24.32;45.89;94882.16;4995676;28;20208;-83
2021/08/03 09:19:40;;;;;;;1.70;1.60;;;23.70;64.40;;;24.44;45.59;94887.97;4995612;28;20201;-84
2021/08/03 09:22:24;;;;;;;1.80;1.70;;;23.80;64.10;;;24.49;45.56;94880.97;5011674;28;20177;-83
2021/08/03 09:25:09;;;;;;;2.78;1.80;;;23.80;63.80;;;24.55;45.70;94882.53;4995515;28;20631;-83
2021/08/03 09:27:47;;;;;;;2.10;1.90;;;23.90;64.00;;;24.70;45.29;94886.97;4998364;28;20216;-82
2021/08/03 09:30:17;;;;;;;1.80;1.70;;;24.00;64.40;;;24.83;45.12;94883.63;5044259;28;20219;-83
2021/08/03 09:32:48;;;;;;;2.30;2.10;;;24.10;63.80;;;24.98;45.07;94876.53;5000386;28;20293;-83
2021/08/03 09:35:23;;;;;;;1.80;1.70;;;24.20;63.80;;;25.07;45.04;94875.63;5001863;28;20226;-84
2021/08/03 09:37:53;;;;;;;1.80;1.70;;;24.40;64.50;;;25.20;44.64;94881.38;4995604;28;20649;-83
2021/08/03 09:40:23;;;;;;;2.53;1.80;;;24.40;63.60;;;25.31;44.35;94882.09;5012081;28;20214;-84
2021/08/03 09:43:07;;;;;;;2.10;1.80;;;24.50;63.10;;;25.32;43.79;94870.25;5011614;28;20207;-83
2021/08/03 09:45:41;;;;;;;2.00;1.80;;;24.70;62.60;;;25.40;43.86;94870.44;5009637;28;20685;-83
2021/08/03 09:48:21;;;;;;;1.83;1.70;;;24.70;62.90;;;25.52;44.20;94866.53;5011560;28;20220;-84
2021/08/03 09:50:58;;;;;;;2.25;1.73;;;24.80;63.10;;;25.64;43.94;94879.56;5011493;28;20673;-84
2021/08/03 09:53:51;;;;;;;1.83;1.73;;;24.90;62.80;;;25.74;43.83;94879.41;4995500;28;20215;-84
2021/08/03 09:56:39;;;;;;;1.67;1.58;;;25.00;62.90;;;25.92;43.49;94869.78;5000677;28;20224;-84
2021/08/03 09:59:07;;;;;;;2.03;1.70;;;25.10;63.00;;;26.11;43.32;94867.13;5017029;28;20212;-84
2021/08/03 10:01:39;;;;;;;2.22;2.03;;;25.20;62.70;;;26.29;42.76;94868.19;4995610;28;20244;-84
2021/08/03 10:04:11;;;;;;;2.00;1.80;;;25.40;63.20;;;26.46;42.61;94859.56;4995497;28;20192;-84
2021/08/03 10:06:40;;;;;;;2.53;1.70;;;25.50;62.30;;;26.64;42.75;94865.22;5011852;28;20275;-84
2021/08/03 10:09:11;;;;;;;1.63;1.52;;;25.60;62.20;;;26.82;42.15;94875.16;4979125;28;20321;-84
2021/08/03 10:11:38;;;;;;;2.00;1.80;;;25.80;61.80;;;26.94;42.24;94865.78;4995792;28;20234;-85
2021/08/03 10:14:24;;;;;;;3.25;1.63;;;25.90;61.80;;;27.05;42.08;94866.41;4997703;28;20198;-84
2021/08/03 10:16:53;;;;;;;1.80;1.70;;;26.10;61.90;;;27.15;42.17;94861.63;4995429;28;20241;-84
2021/08/03 10:19:24;;;;;;;1.67;1.58;;;26.20;61.50;;;27.26;42.02;94858.75;4998977;28;20210;-83
2021/08/03 10:22:25;;;;;;;1.60;1.50;;;26.40;61.20;;;27.37;41.83;94854.75;4994498;28;20609;-84
2021/08/03 10:25:03;;;;;;;1.83;1.70;;;26.50;61.20;;;27.48;41.91;94850.78;5011734;28;20212;-84
2021/08/03 10:27:43;;;;;;;1.85;1.50;;;26.60;60.90;;;27.62;41.34;94856.16;5002514;28;20207;-83
2021/08/03 10:30:30;;;;;;;1.90;1.50;;;26.80;60.60;;;27.76;41.97;94848.03;4995459;28;20220;-84
2021/08/03 10:33:12;;;;;;;2.13;1.83;;;26.90;61.50;;;27.93;41.73;94838.53;5011018;28;20282;-83
2021/08/03 10:35:53;;;;;;;1.60;1.50;;;27.00;61.00;;;28.05;40.24;94841.50;5015327;28;20213;-84
2021/08/03 10:38:28;;;;;;;1.85;1.75;;;27.20;60.00;;;28.12;40.33;94838.38;4999415;28;20291;-85
2021/08/03 10:40:56;;;;;;;2.28;1.90;;;27.30;60.30;;;28.19;40.69;94829.88;4999349;28;20282;-83